createdAt,value
2017-03-31T00:00:18.240Z,946.9
2017-03-31T00:01:26.328Z,946.9
2017-03-31T00:02:34.472Z,946.9
2017-03-31T00:03:42.499Z,946.8
2017-03-31T00:04:50.589Z,946.8
2017-03-31T00:05:58.681Z,946.8
2017-03-31T00:07:06.863Z,946.8
2017-03-31T00:08:14.970Z,946.8
2017-03-31T00:09:23.450Z,946.8
2017-03-31T00:10:31.037Z,946.9
2017-03-31T00:11:39.115Z,946.8
2017-03-31T00:12:47.394Z,946.8
2017-03-31T00:13:55.356Z,946.8
2017-03-31T00:15:03.380Z,946.8
2017-03-31T00:16:11.469Z,946.8
2017-03-31T00:17:19.564Z,946.8
2017-03-31T00:18:27.648Z,946.8
2017-03-31T00:19:36.252Z,946.7
2017-03-31T00:20:43.828Z,946.7
2017-03-31T00:21:51.920Z,946.7
2017-03-31T00:23:00.182Z,946.7
2017-03-31T00:24:08.093Z,946.7
2017-03-31T00:25:16.309Z,946.7
2017-03-31T00:26:24.278Z,946.7
2017-03-31T00:27:32.362Z,946.6
2017-03-31T00:28:40.464Z,946.7
2017-03-31T00:29:48.551Z,946.6
2017-03-31T00:30:56.698Z,946.6
2017-03-31T00:32:04.728Z,946.6
2017-03-31T00:33:12.966Z,946.6
2017-03-31T00:34:21.046Z,946.6
2017-03-31T00:35:28.988Z,946.6
2017-03-31T00:36:37.584Z,946.5
2017-03-31T00:37:45.169Z,946.5
2017-03-31T00:38:53.250Z,946.5
2017-03-31T00:40:01.357Z,946.5
2017-03-31T00:41:09.486Z,946.5
2017-03-31T00:42:17.569Z,946.5
2017-03-31T00:43:25.601Z,946.5
2017-03-31T00:44:33.833Z,946.5
2017-03-31T00:45:41.784Z,946.5
2017-03-31T00:46:49.865Z,946.5
2017-03-31T00:47:58.459Z,946.4
2017-03-31T00:49:06.041Z,946.4
2017-03-31T00:50:14.129Z,946.4
2017-03-31T00:51:22.211Z,946.4
2017-03-31T00:52:30.304Z,946.4
2017-03-31T00:53:38.443Z,946.4
2017-03-31T00:54:46.521Z,946.4
2017-03-31T00:55:54.690Z,946.4
2017-03-31T00:57:02.706Z,946.4
2017-03-31T00:58:10.741Z,946.3
2017-03-31T00:59:19.327Z,946.3
2017-03-31T01:00:26.917Z,946.3
2017-03-31T01:01:35.005Z,946.3
2017-03-31T01:02:43.098Z,946.3
2017-03-31T01:03:51.176Z,946.3
2017-03-31T01:04:59.323Z,946.3
2017-03-31T01:06:14.446Z,946.3
2017-03-31T01:07:15.441Z,946.3
2017-03-31T01:08:23.531Z,946.2
2017-03-31T01:09:31.616Z,946.2
2017-03-31T01:10:39.755Z,946.2
2017-03-31T01:11:47.881Z,946.2
2017-03-31T01:12:55.934Z,946.2
2017-03-31T01:14:03.965Z,946.2
2017-03-31T01:15:12.049Z,946.1
2017-03-31T01:16:20.648Z,946.2
2017-03-31T01:17:28.238Z,946.1
2017-03-31T01:18:36.315Z,946.1
2017-03-31T01:19:44.404Z,946.1
2017-03-31T01:20:52.489Z,946.1
2017-03-31T01:22:00.753Z,946.1
2017-03-31T01:23:08.671Z,946.1
2017-03-31T01:24:16.762Z,946.1
2017-03-31T01:25:24.849Z,946.1
2017-03-31T01:26:32.933Z,946.1
2017-03-31T01:27:41.080Z,946.1
2017-03-31T01:28:49.166Z,946.1
2017-03-31T01:29:57.207Z,946.1
2017-03-31T01:31:05.286Z,946.0
2017-03-31T01:32:13.434Z,946.1
2017-03-31T01:33:21.965Z,946.1
2017-03-31T01:34:29.545Z,946.1
2017-03-31T01:35:37.636Z,946.1
2017-03-31T01:36:45.723Z,946.0
2017-03-31T01:37:53.810Z,946.0
2017-03-31T01:39:01.953Z,946.0
2017-03-31T01:40:09.984Z,946.0
2017-03-31T01:41:18.066Z,946.1
2017-03-31T01:42:26.154Z,946.0
2017-03-31T01:43:34.350Z,946.0
2017-03-31T01:44:42.450Z,946.0
2017-03-31T01:45:50.414Z,946.0
2017-03-31T01:46:58.533Z,946.0
2017-03-31T01:48:06.590Z,946.0
2017-03-31T01:49:14.676Z,946.0
2017-03-31T01:50:23.266Z,946.1
2017-03-31T01:51:30.850Z,946.0
2017-03-31T01:52:38.938Z,946.0
2017-03-31T01:53:47.145Z,946.0
2017-03-31T01:54:55.245Z,946.0
2017-03-31T01:56:03.256Z,946.0
2017-03-31T01:57:11.285Z,946.0
2017-03-31T01:58:19.381Z,946.0
2017-03-31T01:59:27.461Z,946.0
2017-03-31T02:00:35.608Z,946.0
2017-03-31T02:01:43.695Z,946.0
2017-03-31T02:02:51.723Z,945.9
2017-03-31T02:03:59.809Z,945.9
2017-03-31T02:05:07.993Z,945.9
2017-03-31T02:06:15.978Z,945.9
2017-03-31T02:08:32.158Z,945.9
2017-03-31T02:09:40.250Z,945.9
2017-03-31T02:10:48.342Z,945.9
2017-03-31T02:11:56.430Z,945.8
2017-03-31T02:13:04.578Z,945.9
2017-03-31T02:14:12.601Z,945.9
2017-03-31T02:15:20.710Z,945.8
2017-03-31T02:16:28.833Z,945.8
2017-03-31T02:17:36.868Z,945.8
2017-03-31T02:18:45.015Z,945.8
2017-03-31T02:19:53.044Z,945.8
2017-03-31T02:21:01.297Z,945.8
2017-03-31T02:22:09.217Z,945.8
2017-03-31T02:23:17.306Z,945.8
2017-03-31T02:24:25.900Z,945.8
2017-03-31T02:25:33.480Z,945.8
2017-03-31T02:26:41.574Z,945.8
2017-03-31T02:27:49.662Z,945.7
2017-03-31T02:28:57.745Z,945.7
2017-03-31T02:30:05.926Z,945.8
2017-03-31T02:31:14.005Z,945.7
2017-03-31T02:32:22.721Z,945.7
2017-03-31T02:33:30.093Z,945.7
2017-03-31T02:34:38.183Z,945.7
2017-03-31T02:35:46.772Z,945.7
2017-03-31T02:36:54.437Z,945.7
2017-03-31T02:38:02.482Z,945.7
2017-03-31T02:39:10.526Z,945.7
2017-03-31T02:40:18.617Z,945.7
2017-03-31T02:41:26.750Z,945.7
2017-03-31T02:42:34.922Z,945.7
2017-03-31T02:43:42.870Z,945.6
2017-03-31T02:44:50.952Z,945.7
2017-03-31T02:45:59.044Z,945.6
2017-03-31T02:47:07.316Z,945.6
2017-03-31T02:48:15.215Z,945.6
2017-03-31T02:49:23.302Z,945.6
2017-03-31T02:50:31.395Z,945.6
2017-03-31T02:51:39.481Z,945.6
2017-03-31T02:52:47.619Z,945.6
2017-03-31T02:53:55.653Z,945.6
2017-03-31T02:55:03.738Z,945.6
2017-03-31T02:56:11.823Z,945.6
2017-03-31T02:57:20.189Z,945.6
2017-03-31T02:58:28.225Z,945.5
2017-03-31T02:59:36.098Z,945.6
2017-03-31T03:00:44.174Z,945.6
2017-03-31T03:01:52.260Z,945.6
2017-03-31T03:03:00.859Z,945.6
2017-03-31T03:04:08.493Z,945.6
2017-03-31T03:05:16.740Z,945.5
2017-03-31T03:06:24.614Z,945.5
2017-03-31T03:07:32.700Z,945.5
2017-03-31T03:08:40.962Z,945.5
2017-03-31T03:09:48.939Z,945.5
2017-03-31T03:10:56.970Z,945.5
2017-03-31T03:12:05.057Z,945.5
2017-03-31T03:13:13.138Z,945.5
2017-03-31T03:14:21.228Z,945.5
2017-03-31T03:15:29.372Z,945.4
2017-03-31T03:16:37.400Z,945.5
2017-03-31T03:17:45.756Z,945.4
2017-03-31T03:18:54.196Z,945.4
2017-03-31T03:20:01.769Z,945.5
2017-03-31T03:21:09.801Z,945.4
2017-03-31T03:22:17.834Z,945.5
2017-03-31T03:23:26.136Z,945.5
2017-03-31T03:24:34.004Z,945.4
2017-03-31T03:25:42.500Z,945.4
2017-03-31T03:27:58.267Z,945.4
2017-03-31T03:29:06.414Z,945.4
2017-03-31T03:30:14.440Z,945.4
2017-03-31T03:31:22.528Z,945.4
2017-03-31T03:32:30.664Z,945.3
2017-03-31T03:33:38.885Z,945.3
2017-03-31T03:34:47.288Z,945.3
2017-03-31T03:35:54.868Z,945.4
2017-03-31T03:37:02.952Z,945.3
2017-03-31T03:38:11.096Z,945.3
2017-03-31T03:39:19.200Z,945.3
2017-03-31T03:40:27.265Z,945.3
2017-03-31T03:41:35.302Z,945.3
2017-03-31T03:42:43.398Z,945.3
2017-03-31T03:43:51.732Z,945.3
2017-03-31T03:44:59.738Z,945.3
2017-03-31T03:46:07.648Z,945.2
2017-03-31T03:47:15.751Z,945.2
2017-03-31T03:48:23.818Z,945.2
2017-03-31T03:49:31.962Z,945.2
2017-03-31T03:50:40.503Z,945.2
2017-03-31T03:51:48.120Z,945.2
2017-03-31T03:52:56.739Z,945.2
2017-03-31T03:54:04.251Z,945.2
2017-03-31T03:55:12.530Z,945.2
2017-03-31T03:56:20.420Z,945.2
2017-03-31T03:57:28.790Z,945.2
2017-03-31T03:58:36.604Z,945.2
2017-03-31T03:59:44.690Z,945.1
2017-03-31T04:00:52.832Z,945.2
2017-03-31T04:02:00.859Z,945.2
2017-03-31T04:03:08.954Z,945.1
2017-03-31T04:04:17.029Z,945.1
2017-03-31T04:05:25.184Z,945.1
2017-03-31T04:06:33.773Z,945.1
2017-03-31T04:07:41.288Z,945.1
2017-03-31T04:08:49.376Z,945.1
2017-03-31T04:09:57.549Z,945.1
2017-03-31T04:11:05.728Z,945.1
2017-03-31T04:12:13.687Z,945.1
2017-03-31T04:13:21.722Z,945.1
2017-03-31T04:14:29.807Z,945.1
2017-03-31T04:15:37.889Z,945.1
2017-03-31T04:16:45.979Z,945.1
2017-03-31T04:17:54.571Z,945.1
2017-03-31T04:19:02.153Z,945.1
2017-03-31T04:20:10.238Z,945.1
2017-03-31T04:21:18.498Z,945.1
2017-03-31T04:22:26.533Z,945.1
2017-03-31T04:23:34.569Z,945.1
2017-03-31T04:24:42.586Z,945.1
2017-03-31T04:25:50.671Z,945.1
2017-03-31T04:26:58.823Z,945.1
2017-03-31T04:28:06.897Z,945.1
2017-03-31T04:29:15.436Z,945.1
2017-03-31T04:30:23.015Z,945.1
2017-03-31T04:31:31.102Z,945.1
2017-03-31T04:32:39.396Z,945.1
2017-03-31T04:33:47.279Z,945.1
2017-03-31T04:34:55.422Z,945.1
2017-03-31T04:36:03.447Z,945.1
2017-03-31T04:37:12.094Z,945.1
2017-03-31T04:38:21.131Z,945.0
2017-03-31T04:39:27.704Z,945.1
2017-03-31T04:40:35.850Z,945.1
2017-03-31T04:41:43.940Z,945.1
2017-03-31T04:42:52.147Z,945.1
2017-03-31T04:44:00.048Z,945.1
2017-03-31T04:45:08.135Z,945.1
2017-03-31T04:46:16.282Z,945.1
2017-03-31T04:47:24.309Z,945.0
2017-03-31T04:48:32.393Z,945.0
2017-03-31T04:49:40.480Z,945.1
2017-03-31T04:50:48.565Z,945.0
2017-03-31T04:51:56.708Z,945.1
2017-03-31T04:53:04.742Z,945.1
2017-03-31T04:54:13.004Z,945.1
2017-03-31T04:55:20.911Z,945.1
2017-03-31T04:56:28.999Z,945.1
2017-03-31T04:57:37.138Z,945.0
2017-03-31T04:58:45.168Z,945.0
2017-03-31T04:59:53.259Z,945.0
2017-03-31T05:01:01.344Z,945.0
2017-03-31T05:02:09.428Z,945.0
2017-03-31T05:03:17.567Z,945.0
2017-03-31T05:04:25.603Z,945.0
2017-03-31T05:05:33.722Z,945.0
2017-03-31T05:06:41.777Z,945.0
2017-03-31T05:07:49.868Z,945.0
2017-03-31T05:08:58.210Z,945.0
2017-03-31T05:10:06.287Z,945.1
2017-03-31T05:11:14.122Z,945.1
2017-03-31T05:12:22.211Z,945.0
2017-03-31T05:13:30.297Z,945.1
2017-03-31T05:14:38.885Z,945.0
2017-03-31T05:15:46.475Z,945.0
2017-03-31T05:16:54.559Z,945.0
2017-03-31T05:18:02.649Z,945.0
2017-03-31T05:19:10.733Z,945.0
2017-03-31T05:20:19.043Z,945.0
2017-03-31T05:21:27.002Z,945.0
2017-03-31T05:22:34.990Z,945.0
2017-03-31T05:23:43.079Z,945.0
2017-03-31T05:24:51.167Z,945.0
2017-03-31T05:25:59.311Z,945.0
2017-03-31T05:27:07.343Z,945.0
2017-03-31T05:28:15.431Z,945.0
2017-03-31T05:29:23.513Z,945.0
2017-03-31T05:30:31.596Z,945.0
2017-03-31T05:31:39.777Z,945.0
2017-03-31T05:32:47.771Z,945.1
2017-03-31T05:33:55.855Z,945.0
2017-03-31T05:35:04.076Z,945.0
2017-03-31T05:36:12.025Z,945.0
2017-03-31T05:37:22.256Z,945.0
2017-03-31T05:38:28.196Z,945.0
2017-03-31T05:39:36.284Z,945.0
2017-03-31T05:40:44.367Z,945.0
2017-03-31T05:41:52.506Z,945.0
2017-03-31T05:43:00.590Z,945.0
2017-03-31T05:44:08.623Z,945.0
2017-03-31T05:45:16.712Z,945.0
2017-03-31T05:46:24.788Z,945.0
2017-03-31T05:47:32.885Z,945.0
2017-03-31T05:48:41.467Z,945.0
2017-03-31T05:49:49.046Z,945.0
2017-03-31T05:50:57.132Z,945.0
2017-03-31T05:52:05.273Z,945.0
2017-03-31T05:53:13.334Z,945.0
2017-03-31T05:54:21.512Z,945.0
2017-03-31T05:55:29.489Z,945.0
2017-03-31T05:56:37.568Z,945.0
2017-03-31T05:57:45.707Z,945.0
2017-03-31T05:58:53.738Z,945.0
2017-03-31T06:00:02.331Z,945.1
2017-03-31T06:01:09.909Z,945.0
2017-03-31T06:02:17.992Z,945.0
2017-03-31T06:03:26.170Z,945.1
2017-03-31T06:04:34.167Z,945.0
2017-03-31T06:05:42.304Z,945.1
2017-03-31T06:06:50.380Z,945.0
2017-03-31T06:07:58.427Z,945.0
2017-03-31T06:09:06.541Z,945.0
2017-03-31T06:10:14.593Z,945.0
2017-03-31T06:11:23.189Z,945.0
2017-03-31T06:12:30.767Z,945.0
2017-03-31T06:13:38.908Z,945.0
2017-03-31T06:14:47.011Z,945.0
2017-03-31T06:15:55.026Z,945.0
2017-03-31T06:17:03.290Z,945.0
2017-03-31T06:18:11.195Z,945.0
2017-03-31T06:19:19.458Z,945.0
2017-03-31T06:20:27.368Z,945.0
2017-03-31T06:21:35.451Z,945.0
2017-03-31T06:22:43.593Z,945.0
2017-03-31T06:23:51.623Z,945.0
2017-03-31T06:24:59.714Z,945.0
2017-03-31T06:26:07.797Z,945.0
2017-03-31T06:27:15.886Z,944.9
2017-03-31T06:28:24.474Z,945.0
2017-03-31T06:29:32.224Z,945.0
2017-03-31T06:30:40.232Z,945.0
2017-03-31T06:31:48.226Z,944.9
2017-03-31T06:32:56.308Z,945.0
2017-03-31T06:34:04.451Z,944.9
2017-03-31T06:35:12.483Z,944.9
2017-03-31T06:36:20.567Z,944.9
2017-03-31T06:37:28.655Z,944.9
2017-03-31T06:38:37.003Z,945.0
2017-03-31T06:39:46.767Z,945.0
2017-03-31T06:40:53.196Z,944.9
2017-03-31T06:42:00.997Z,944.9
2017-03-31T06:43:09.087Z,944.9
2017-03-31T06:44:17.172Z,944.9
2017-03-31T06:45:25.476Z,944.9
2017-03-31T06:46:33.342Z,944.9
2017-03-31T06:47:41.435Z,944.8
2017-03-31T06:48:49.511Z,944.9
2017-03-31T06:49:57.596Z,944.8
2017-03-31T06:51:05.742Z,944.8
2017-03-31T06:52:13.772Z,944.8
2017-03-31T06:53:21.854Z,944.8
2017-03-31T06:54:29.944Z,944.8
2017-03-31T06:55:38.122Z,944.8
2017-03-31T06:56:46.249Z,944.8
2017-03-31T06:57:54.198Z,944.8
2017-03-31T06:59:02.287Z,944.8
2017-03-31T07:00:10.378Z,944.8
2017-03-31T07:01:18.968Z,944.8
2017-03-31T07:02:26.606Z,944.8
2017-03-31T07:03:34.635Z,944.8
2017-03-31T07:04:42.717Z,944.8
2017-03-31T07:05:50.807Z,944.8
2017-03-31T07:06:58.980Z,944.7
2017-03-31T07:08:07.024Z,944.8
2017-03-31T07:09:15.058Z,944.7
2017-03-31T07:10:23.148Z,944.8
2017-03-31T07:11:31.246Z,944.8
2017-03-31T07:12:39.321Z,944.8
2017-03-31T07:13:47.463Z,944.9
2017-03-31T07:14:55.496Z,944.8
2017-03-31T07:16:03.582Z,944.8
2017-03-31T07:17:11.719Z,944.8
2017-03-31T07:18:19.880Z,944.8
2017-03-31T07:19:27.892Z,944.8
2017-03-31T07:20:36.432Z,944.8
2017-03-31T07:21:44.007Z,944.8
2017-03-31T07:22:52.092Z,944.8
2017-03-31T07:24:00.175Z,944.8
2017-03-31T07:25:08.769Z,944.8
2017-03-31T07:26:16.357Z,944.8
2017-03-31T07:27:24.443Z,944.8
2017-03-31T07:28:32.555Z,944.8
2017-03-31T07:29:40.762Z,944.8
2017-03-31T07:30:48.758Z,944.8
2017-03-31T07:31:56.789Z,944.7
2017-03-31T07:33:04.932Z,944.8
2017-03-31T07:34:12.964Z,944.7
2017-03-31T07:35:21.053Z,944.7
2017-03-31T07:36:29.189Z,944.8
2017-03-31T07:37:37.218Z,944.8
2017-03-31T07:38:45.303Z,944.8
2017-03-31T07:39:53.385Z,944.7
2017-03-31T07:41:01.471Z,944.7
2017-03-31T07:42:09.619Z,944.7
2017-03-31T07:43:17.656Z,944.7
2017-03-31T07:44:26.599Z,944.7
2017-03-31T07:45:33.829Z,944.7
2017-03-31T07:46:41.912Z,944.7
2017-03-31T07:47:50.501Z,944.7
2017-03-31T07:48:58.133Z,944.7
2017-03-31T07:50:06.169Z,944.7
2017-03-31T07:51:14.254Z,944.7
2017-03-31T07:52:22.336Z,944.7
2017-03-31T07:53:30.482Z,944.7
2017-03-31T07:54:38.531Z,944.7
2017-03-31T07:55:46.922Z,944.7
2017-03-31T07:56:55.088Z,944.7
2017-03-31T07:58:02.767Z,944.7
2017-03-31T07:59:11.365Z,944.7
2017-03-31T08:00:18.941Z,944.7
2017-03-31T08:01:27.033Z,944.7
2017-03-31T08:02:35.114Z,944.7
2017-03-31T08:03:43.207Z,944.7
2017-03-31T08:04:51.344Z,944.7
2017-03-31T08:05:59.378Z,944.7
2017-03-31T08:07:08.008Z,944.7
2017-03-31T08:08:15.547Z,944.7
2017-03-31T08:09:23.637Z,944.6
2017-03-31T08:10:32.041Z,944.7
2017-03-31T08:11:39.808Z,944.7
2017-03-31T08:12:47.893Z,944.7
2017-03-31T08:13:55.976Z,944.7
2017-03-31T08:15:04.063Z,944.8
2017-03-31T08:16:12.811Z,944.8
2017-03-31T08:17:20.234Z,944.8
2017-03-31T08:18:28.534Z,944.8
2017-03-31T08:19:36.413Z,944.8
2017-03-31T08:20:44.602Z,944.7
2017-03-31T08:21:53.095Z,944.7
2017-03-31T08:23:00.682Z,944.7
2017-03-31T08:24:08.765Z,944.7
2017-03-31T08:25:16.858Z,944.7
2017-03-31T08:26:24.938Z,944.8
2017-03-31T08:27:33.082Z,944.7
2017-03-31T08:28:41.195Z,944.8
2017-03-31T08:29:50.694Z,944.7
2017-03-31T08:30:57.581Z,944.7
2017-03-31T08:32:05.658Z,944.8
2017-03-31T08:33:14.968Z,944.8
2017-03-31T08:34:21.539Z,944.8
2017-03-31T08:35:29.771Z,944.8
2017-03-31T08:36:38.215Z,944.8
2017-03-31T08:37:45.847Z,944.7
2017-03-31T08:38:53.969Z,944.8
2017-03-31T08:40:01.967Z,944.7
2017-03-31T08:41:10.056Z,944.8
2017-03-31T08:42:18.139Z,944.7
2017-03-31T08:43:26.384Z,944.7
2017-03-31T08:44:34.818Z,944.7
2017-03-31T08:45:42.399Z,944.7
2017-03-31T08:46:50.493Z,944.7
2017-03-31T08:47:58.574Z,944.7
2017-03-31T08:49:06.675Z,944.7
2017-03-31T08:50:14.875Z,944.7
2017-03-31T08:51:22.839Z,944.7
2017-03-31T08:52:30.983Z,944.7
2017-03-31T08:53:39.146Z,944.7
2017-03-31T08:54:47.115Z,944.7
2017-03-31T08:55:55.235Z,944.7
2017-03-31T08:57:03.270Z,944.7
2017-03-31T08:58:11.357Z,944.7
2017-03-31T08:59:19.439Z,944.7
2017-03-31T09:00:27.530Z,944.7
2017-03-31T09:01:35.674Z,944.7
2017-03-31T09:02:43.726Z,944.7
2017-03-31T09:03:51.786Z,944.7
2017-03-31T09:04:59.976Z,944.7
2017-03-31T09:06:07.956Z,944.7
2017-03-31T09:07:16.099Z,944.7
2017-03-31T09:08:24.189Z,944.7
2017-03-31T09:09:32.221Z,944.8
2017-03-31T09:10:40.308Z,944.7
2017-03-31T09:11:48.392Z,944.7
2017-03-31T09:12:57.128Z,944.7
2017-03-31T09:14:04.717Z,944.6
2017-03-31T09:15:12.672Z,944.6
2017-03-31T09:16:20.738Z,944.6
2017-03-31T09:17:28.825Z,944.6
2017-03-31T09:18:36.967Z,944.6
2017-03-31T09:19:45.150Z,944.6
2017-03-31T09:20:53.213Z,944.6
2017-03-31T09:22:01.166Z,944.6
2017-03-31T09:23:09.395Z,944.6
2017-03-31T09:24:17.400Z,944.6
2017-03-31T09:25:25.427Z,944.6
2017-03-31T09:26:33.508Z,944.6
2017-03-31T09:27:41.625Z,944.6
2017-03-31T09:28:49.679Z,944.6
2017-03-31T09:29:57.889Z,944.5
2017-03-31T09:31:05.986Z,944.6
2017-03-31T09:32:13.936Z,944.5
2017-03-31T09:33:22.023Z,944.5
2017-03-31T09:34:30.109Z,944.5
2017-03-31T09:35:38.699Z,944.5
2017-03-31T09:36:46.290Z,944.5
2017-03-31T09:37:54.379Z,944.5
2017-03-31T09:39:02.446Z,944.5
2017-03-31T09:40:10.593Z,944.5
2017-03-31T09:41:18.855Z,944.5
2017-03-31T09:42:26.860Z,944.4
2017-03-31T09:43:34.800Z,944.5
2017-03-31T09:44:42.893Z,944.4
2017-03-31T09:45:50.979Z,944.4
2017-03-31T09:46:59.565Z,944.4
2017-03-31T09:48:07.149Z,944.4
2017-03-31T09:49:15.236Z,944.4
2017-03-31T09:50:23.320Z,944.4
2017-03-31T09:51:31.411Z,944.4
2017-03-31T09:52:39.605Z,944.4
2017-03-31T09:53:47.584Z,944.4
2017-03-31T09:54:55.670Z,944.4
2017-03-31T09:56:04.266Z,944.4
2017-03-31T09:57:11.847Z,944.4
2017-03-31T09:58:20.050Z,944.4
2017-03-31T09:59:28.017Z,944.4
2017-03-31T10:00:36.394Z,944.4
2017-03-31T10:01:44.325Z,944.4
2017-03-31T10:02:52.568Z,944.4
2017-03-31T10:04:00.431Z,944.4
2017-03-31T10:05:08.653Z,944.4
2017-03-31T10:06:16.787Z,944.3
2017-03-31T10:07:24.624Z,944.4
2017-03-31T10:08:32.710Z,944.4
2017-03-31T10:09:41.300Z,944.4
2017-03-31T10:10:48.880Z,944.4
2017-03-31T10:11:57.027Z,944.3
2017-03-31T10:13:05.060Z,944.3
2017-03-31T10:14:13.221Z,944.4
2017-03-31T10:15:21.289Z,944.3
2017-03-31T10:16:29.318Z,944.3
2017-03-31T10:17:37.415Z,944.3
2017-03-31T10:18:45.494Z,944.2
2017-03-31T10:19:53.784Z,944.3
2017-03-31T10:21:01.790Z,944.2
2017-03-31T10:22:09.754Z,944.2
2017-03-31T10:23:17.850Z,944.2
2017-03-31T10:24:25.937Z,944.3
2017-03-31T10:25:34.026Z,944.2
2017-03-31T10:26:43.617Z,944.2
2017-03-31T10:27:50.314Z,944.2
2017-03-31T10:28:58.293Z,944.2
2017-03-31T10:30:06.372Z,944.2
2017-03-31T10:31:14.464Z,944.2
2017-03-31T10:32:22.603Z,944.2
2017-03-31T10:33:30.631Z,944.1
2017-03-31T10:34:38.720Z,944.2
2017-03-31T10:35:46.804Z,944.1
2017-03-31T10:36:54.893Z,944.2
2017-03-31T10:38:03.033Z,944.1
2017-03-31T10:39:11.061Z,944.1
2017-03-31T10:40:19.167Z,944.1
2017-03-31T10:41:27.230Z,944.1
2017-03-31T10:42:35.323Z,944.1
2017-03-31T10:43:43.915Z,944.1
2017-03-31T10:44:51.524Z,944.1
2017-03-31T10:45:59.687Z,944.1
2017-03-31T10:47:07.670Z,944.0
2017-03-31T10:48:15.756Z,944.0
2017-03-31T10:49:24.115Z,944.1
2017-03-31T10:50:32.653Z,944.0
2017-03-31T10:51:40.027Z,944.0
2017-03-31T10:52:48.113Z,944.0
2017-03-31T10:53:56.198Z,944.0
2017-03-31T10:55:04.789Z,943.9
2017-03-31T10:56:12.574Z,943.9
2017-03-31T10:57:20.462Z,944.0
2017-03-31T10:58:28.554Z,943.9
2017-03-31T10:59:36.701Z,943.9
2017-03-31T11:00:44.848Z,943.9
2017-03-31T11:01:52.840Z,943.9
2017-03-31T11:03:00.925Z,943.9
2017-03-31T11:04:08.988Z,943.8
2017-03-31T11:05:17.072Z,943.8
2017-03-31T11:06:25.770Z,943.8
2017-03-31T11:07:33.245Z,943.8
2017-03-31T11:08:41.327Z,943.7
2017-03-31T11:09:49.413Z,943.7
2017-03-31T11:10:57.506Z,943.7
2017-03-31T11:12:05.650Z,943.7
2017-03-31T11:13:13.990Z,943.7
2017-03-31T11:14:21.769Z,943.7
2017-03-31T11:15:29.907Z,943.7
2017-03-31T11:16:37.932Z,943.7
2017-03-31T11:17:46.224Z,943.7
2017-03-31T11:18:54.108Z,943.6
2017-03-31T11:20:02.192Z,943.7
2017-03-31T11:21:10.277Z,943.7
2017-03-31T11:22:18.374Z,943.6
2017-03-31T11:23:26.542Z,943.6
2017-03-31T11:24:34.550Z,943.6
2017-03-31T11:25:42.633Z,943.6
2017-03-31T11:26:50.717Z,943.6
2017-03-31T11:27:58.803Z,943.6
2017-03-31T11:29:07.560Z,943.6
2017-03-31T11:30:14.975Z,943.6
2017-03-31T11:31:23.118Z,943.6
2017-03-31T11:32:31.146Z,943.5
2017-03-31T11:33:39.234Z,943.5
2017-03-31T11:34:47.380Z,943.5
2017-03-31T11:35:55.408Z,943.5
2017-03-31T11:37:03.492Z,943.5
2017-03-31T11:38:11.582Z,943.5
2017-03-31T11:39:19.803Z,943.5
2017-03-31T11:40:27.828Z,943.5
2017-03-31T11:41:35.838Z,943.5
2017-03-31T11:42:43.924Z,943.5
2017-03-31T11:43:52.015Z,943.4
2017-03-31T11:45:00.095Z,943.4
2017-03-31T11:46:08.700Z,943.4
2017-03-31T11:47:16.328Z,943.4
2017-03-31T11:48:24.365Z,943.4
2017-03-31T11:49:32.449Z,943.4
2017-03-31T11:50:40.533Z,943.4
2017-03-31T11:51:48.680Z,943.4
2017-03-31T11:52:56.708Z,943.3
2017-03-31T11:54:04.799Z,943.3
2017-03-31T11:55:13.213Z,943.3
2017-03-31T11:56:20.974Z,943.3
2017-03-31T11:57:29.573Z,943.3
2017-03-31T11:58:37.152Z,943.3
2017-03-31T11:59:45.243Z,943.3
2017-03-31T12:00:53.320Z,943.2
2017-03-31T12:02:01.570Z,943.2
2017-03-31T12:03:09.618Z,943.2
2017-03-31T12:04:17.656Z,943.2
2017-03-31T12:05:25.679Z,943.2
2017-03-31T12:06:34.015Z,943.2
2017-03-31T12:07:42.019Z,943.2
2017-03-31T12:08:51.437Z,943.2
2017-03-31T12:09:58.019Z,943.1
2017-03-31T12:11:06.427Z,943.1
2017-03-31T12:12:14.396Z,943.1
2017-03-31T12:13:22.727Z,943.1
2017-03-31T12:14:32.444Z,943.1
2017-03-31T12:15:38.591Z,943.1
2017-03-31T12:16:46.636Z,943.1
2017-03-31T12:17:55.076Z,943.1
2017-03-31T12:19:03.224Z,943.1
2017-03-31T12:20:10.862Z,943.0
2017-03-31T12:21:18.901Z,943.1
2017-03-31T12:22:26.988Z,943.0
2017-03-31T12:23:35.129Z,943.0
2017-03-31T12:24:43.597Z,943.0
2017-03-31T12:25:51.662Z,942.9
2017-03-31T12:26:59.400Z,943.0
2017-03-31T12:28:07.469Z,942.9
2017-03-31T12:29:15.506Z,942.9
2017-03-31T12:30:23.593Z,942.9
2017-03-31T12:31:31.729Z,942.9
2017-03-31T12:32:39.765Z,942.9
2017-03-31T12:33:47.849Z,942.9
2017-03-31T12:34:56.443Z,942.9
2017-03-31T12:36:04.020Z,942.9
2017-03-31T12:37:12.170Z,942.9
2017-03-31T12:38:20.335Z,942.9
2017-03-31T12:39:28.282Z,942.8
2017-03-31T12:40:36.374Z,942.8
2017-03-31T12:41:44.460Z,942.8
2017-03-31T12:42:52.602Z,942.7
2017-03-31T12:44:00.631Z,942.7
2017-03-31T12:45:08.721Z,942.7
2017-03-31T12:46:16.812Z,942.7
2017-03-31T12:47:24.900Z,942.7
2017-03-31T12:48:33.494Z,942.7
2017-03-31T12:49:41.107Z,942.7
2017-03-31T12:50:49.226Z,942.6
2017-03-31T12:51:57.253Z,942.7
2017-03-31T12:53:05.346Z,942.6
2017-03-31T12:54:13.555Z,942.6
2017-03-31T12:55:21.520Z,942.6
2017-03-31T12:56:29.609Z,942.6
2017-03-31T12:57:37.700Z,942.5
2017-03-31T12:58:46.154Z,942.6
2017-03-31T12:59:54.374Z,942.5
2017-03-31T13:01:01.957Z,942.5
2017-03-31T13:02:10.045Z,942.5
2017-03-31T13:03:18.127Z,942.5
2017-03-31T13:04:26.365Z,942.5
2017-03-31T13:05:34.476Z,942.5
2017-03-31T13:06:42.445Z,942.5
2017-03-31T13:07:50.475Z,942.4
2017-03-31T13:08:58.563Z,942.4
2017-03-31T13:10:06.650Z,942.4
2017-03-31T13:11:15.239Z,942.4
2017-03-31T13:12:22.830Z,942.4
2017-03-31T13:13:30.909Z,942.4
2017-03-31T13:14:38.996Z,942.4
2017-03-31T13:15:47.171Z,942.4
2017-03-31T13:16:55.231Z,942.3
2017-03-31T13:18:03.254Z,942.3
2017-03-31T13:19:11.340Z,942.3
2017-03-31T13:20:19.429Z,942.3
2017-03-31T13:21:27.513Z,942.3
2017-03-31T13:22:35.656Z,942.3
2017-03-31T13:23:43.685Z,942.2
2017-03-31T13:24:51.780Z,942.2
2017-03-31T13:25:59.980Z,942.2
2017-03-31T13:27:08.062Z,942.2
2017-03-31T13:28:16.159Z,942.2
2017-03-31T13:29:24.124Z,942.1
2017-03-31T13:30:32.209Z,942.1
2017-03-31T13:31:40.315Z,942.2
2017-03-31T13:32:48.383Z,942.1
2017-03-31T13:33:56.973Z,942.2
2017-03-31T13:35:04.556Z,942.1
2017-03-31T13:36:12.648Z,942.1
2017-03-31T13:37:20.854Z,942.1
2017-03-31T13:38:28.880Z,942.1
2017-03-31T13:39:36.963Z,942.1
2017-03-31T13:40:45.389Z,942.1
2017-03-31T13:41:53.078Z,942.0
2017-03-31T13:43:01.165Z,942.0
2017-03-31T13:44:09.252Z,942.0
2017-03-31T13:45:17.396Z,942.0
2017-03-31T13:46:25.421Z,942.0
2017-03-31T13:47:33.548Z,942.0
2017-03-31T13:48:41.726Z,942.0
2017-03-31T13:49:49.683Z,942.0
2017-03-31T13:50:57.826Z,942.0
2017-03-31T13:52:06.023Z,941.9
2017-03-31T13:53:13.943Z,942.0
2017-03-31T13:54:22.536Z,942.0
2017-03-31T13:55:30.116Z,941.9
2017-03-31T13:56:38.278Z,941.9
2017-03-31T13:57:46.288Z,941.9
2017-03-31T13:58:54.487Z,941.9
2017-03-31T14:00:02.460Z,941.9
2017-03-31T14:01:10.550Z,941.9
2017-03-31T14:02:18.692Z,941.8
2017-03-31T14:03:26.725Z,941.8
2017-03-31T14:04:34.811Z,941.8
2017-03-31T14:05:42.904Z,941.8
2017-03-31T14:06:50.983Z,941.8
2017-03-31T14:07:59.131Z,941.7
2017-03-31T14:09:07.168Z,941.7
2017-03-31T14:10:15.306Z,941.7
2017-03-31T14:11:23.336Z,941.7
2017-03-31T14:12:31.424Z,941.7
2017-03-31T14:13:39.566Z,941.7
2017-03-31T14:14:47.712Z,941.7
2017-03-31T14:15:55.682Z,941.6
2017-03-31T14:17:03.777Z,941.6
2017-03-31T14:18:11.857Z,941.6
2017-03-31T14:19:20.453Z,941.5
2017-03-31T14:20:28.035Z,941.6
2017-03-31T14:21:36.118Z,941.5
2017-03-31T14:22:44.203Z,941.5
2017-03-31T14:23:52.293Z,941.5
2017-03-31T14:25:00.436Z,941.5
2017-03-31T14:26:08.970Z,941.5
2017-03-31T14:27:16.553Z,941.5
2017-03-31T14:28:24.639Z,941.5
2017-03-31T14:29:32.924Z,941.4
2017-03-31T14:30:41.050Z,941.5
2017-03-31T14:31:48.899Z,941.4
2017-03-31T14:32:56.992Z,941.4
2017-03-31T14:34:05.075Z,941.4
2017-03-31T14:35:13.165Z,941.4
2017-03-31T14:36:21.759Z,941.4
2017-03-31T14:37:29.341Z,941.4
2017-03-31T14:38:37.421Z,941.3